Hyalite Weather Station

This weather station provides temperature, wind speed, gust or max wind speed, and wind direction at 9982ft near the summit of Flanders Mountain. This data can be used with temperature and precipitation data from the Shower Falls SNOTEL site. If the data has not been updated recently you can view it directly on datagarrison.com

Elevation
9982ft
Jump to table bottom
Date Time Temperature
deg F
RH, % Wind Speed Wind Gust Wind Direction
01/26/20 15:00 23.0 92 9 16 SW - 241
01/26/20 14:00 23.2 77 9 15 SW - 243
01/26/20 13:00 23.8 71 11 21 W - 250
01/26/20 12:00 23.2 52 10 17 W - 256
01/26/20 11:00 23.4 39 12 18 W - 260
01/26/20 10:00 21.4 39 11 18 W - 254
01/26/20 09:00 20.4 46 10 16 W - 251
01/26/20 08:00 19.9 52 13 21 W - 250
01/26/20 07:00 17.1 69 13 20 W - 253
01/26/20 06:00 17.2 70 12 20 W - 250
01/26/20 05:00 16.8 75 13 20 W - 253
01/26/20 04:00 15.7 84 13 20 W - 251
01/26/20 03:00 15.6 90 15 22 W - 253
01/26/20 02:00 15.7 94 16 24 W - 254
01/26/20 01:00 16.9 91 14 27 W - 254
01/26/20 00:00 17.7 91 14 26 W - 261
01/25/20 23:00 18.2 88 18 30 W - 258
01/25/20 22:00 18.1 87 23 34 W - 257
01/25/20 21:00 18.1 89 21 31 W - 256
01/25/20 20:00 18.1 89 21 34 W - 261
01/25/20 19:00 17.7 91 19 32 W - 261
01/25/20 18:00 17.5 92 17 34 W - 254
01/25/20 17:00 16.8 93 16 27 W - 251
01/25/20 16:00 15.1 88 12 21 SW - 246
01/25/20 15:00 16.2 77 16 25 W - 250
01/25/20 14:00 18.0 74 10 20 SW - 239
01/25/20 13:00 16.8 77 11 18 W - 251
01/25/20 12:00 15.1 78 13 22 W - 254
01/25/20 11:00 14.5 78 11 24 W - 254
01/25/20 10:00 14.4 79 17 28 W - 254
01/25/20 09:00 14.5 83 15 27 W - 254
01/25/20 08:00 12.6 92 18 29 W - 250
01/25/20 07:00 13.3 93 14 27 W - 254
01/25/20 06:00 13.2 82 18 27 W - 253
01/25/20 05:00 14.8 74 17 28 W - 254
01/25/20 04:00 15.3 79 20 39 W - 256
01/25/20 03:00 15.3 90 13 32 W - 258
01/25/20 02:00 16.1 92 12 22 W - 257
01/25/20 01:00 17.1 87 17 33 W - 254
01/25/20 00:00 18.0 92 18 31 W - 256
01/24/20 23:00 18.8 94 13 30 W - 253
01/24/20 22:00 19.2 94 17 29 W - 256
01/24/20 21:00 18.8 95 17 29 W - 267
01/24/20 20:00 18.9 96 14 25 W - 260
01/24/20 19:00 19.8 96 15 27 W - 260
01/24/20 18:00 20.4 96 14 24 W - 258
01/24/20 17:00 21.0 96 13 20 W - 250
01/24/20 16:00 21.0 94 16 25 SW - 244
01/24/20 15:00 21.4 92 14 26 SW - 239
01/24/20 14:00 21.6 90 7 18 SW - 236